<?xml version="1.0" encoding="UTF-8" standalone="no" ?>
<gpx xmlns="http://www.topografix.com/GPX/1/1" xmlns:xsi="http://www.w3.org/2001/XMLSchema-instance" xsi:schemaLocation="http://www.topografix.com/GPX/1/1 http://www.topografix.com/GPX/1/1/gpx.xsd" version="1.1" creator="VisuGPX - https://www.visugpx.com">
  <metadata>
    <name>De Meillerie à Salvigny</name>
    <desc><![CDATA[Randonnée en Haute-Savoie]]></desc>
  </metadata>
  <trk>
    <name><![CDATA[ACTIVE LOG: 29 JUL 2015 07:45]]></name>
    <trkseg>
      <trkpt lat="46.14053" lon="6.77413">
        <ele>1348.87</ele>
        <time>2015-07-29T05:47:31Z</time>
      </trkpt>
      <trkpt lat="46.14001" lon="6.77422">
        <ele>1345.98</ele>
        <time>2015-07-29T05:48:36Z</time>
      </trkpt>
      <trkpt lat="46.1395" lon="6.77402">
        <ele>1346.94</ele>
        <time>2015-07-29T05:49:41Z</time>
      </trkpt>
      <trkpt lat="46.1392" lon="6.77471">
        <ele>1354.15</ele>
        <time>2015-07-29T05:50:46Z</time>
      </trkpt>
      <trkpt lat="46.13888" lon="6.77518">
        <ele>1361.36</ele>
        <time>2015-07-29T05:51:51Z</time>
      </trkpt>
      <trkpt lat="46.13848" lon="6.77554">
        <ele>1368.57</ele>
        <time>2015-07-29T05:52:56Z</time>
      </trkpt>
      <trkpt lat="46.13813" lon="6.77561">
        <ele>1376.75</ele>
        <time>2015-07-29T05:54:01Z</time>
      </trkpt>
      <trkpt lat="46.13783" lon="6.77519">
        <ele>1380.11</ele>
        <time>2015-07-29T05:55:06Z</time>
      </trkpt>
      <trkpt lat="46.13766" lon="6.77474">
        <ele>1389.72</ele>
        <time>2015-07-29T05:56:11Z</time>
      </trkpt>
      <trkpt lat="46.13757" lon="6.77413">
        <ele>1395.01</ele>
        <time>2015-07-29T05:57:16Z</time>
      </trkpt>
      <trkpt lat="46.13746" lon="6.77403">
        <ele>1401.74</ele>
        <time>2015-07-29T05:58:21Z</time>
      </trkpt>
      <trkpt lat="46.13729" lon="6.77432">
        <ele>1407.99</ele>
        <time>2015-07-29T05:59:26Z</time>
      </trkpt>
      <trkpt lat="46.13704" lon="6.77391">
        <ele>1417.6</ele>
        <time>2015-07-29T06:00:31Z</time>
      </trkpt>
      <trkpt lat="46.13687" lon="6.77344">
        <ele>1419.04</ele>
        <time>2015-07-29T06:01:36Z</time>
      </trkpt>
      <trkpt lat="46.13647" lon="6.77305">
        <ele>1427.7</ele>
        <time>2015-07-29T06:02:41Z</time>
      </trkpt>
      <trkpt lat="46.1363" lon="6.77234">
        <ele>1434.42</ele>
        <time>2015-07-29T06:03:46Z</time>
      </trkpt>
      <trkpt lat="46.13637" lon="6.77171">
        <ele>1438.75</ele>
        <time>2015-07-29T06:04:51Z</time>
      </trkpt>
      <trkpt lat="46.13644" lon="6.77112">
        <ele>1446.92</ele>
        <time>2015-07-29T06:05:56Z</time>
      </trkpt>
      <trkpt lat="46.13652" lon="6.77056">
        <ele>1453.17</ele>
        <time>2015-07-29T06:07:01Z</time>
      </trkpt>
      <trkpt lat="46.13668" lon="6.77008">
        <ele>1461.34</ele>
        <time>2015-07-29T06:08:06Z</time>
      </trkpt>
      <trkpt lat="46.13679" lon="6.76956">
        <ele>1469.51</ele>
        <time>2015-07-29T06:09:11Z</time>
      </trkpt>
      <trkpt lat="46.13657" lon="6.76914">
        <ele>1473.36</ele>
        <time>2015-07-29T06:10:16Z</time>
      </trkpt>
      <trkpt lat="46.13633" lon="6.76866">
        <ele>1474.32</ele>
        <time>2015-07-29T06:11:21Z</time>
      </trkpt>
      <trkpt lat="46.13604" lon="6.76803">
        <ele>1478.65</ele>
        <time>2015-07-29T06:12:26Z</time>
      </trkpt>
      <trkpt lat="46.1361" lon="6.76749">
        <ele>1483.93</ele>
        <time>2015-07-29T06:13:31Z</time>
      </trkpt>
      <trkpt lat="46.13647" lon="6.76722">
        <ele>1491.14</ele>
        <time>2015-07-29T06:14:36Z</time>
      </trkpt>
      <trkpt lat="46.13694" lon="6.76716">
        <ele>1499.31</ele>
        <time>2015-07-29T06:15:41Z</time>
      </trkpt>
      <trkpt lat="46.13699" lon="6.7668">
        <ele>1505.08</ele>
        <time>2015-07-29T06:16:46Z</time>
      </trkpt>
      <trkpt lat="46.13658" lon="6.76666">
        <ele>1513.25</ele>
        <time>2015-07-29T06:17:51Z</time>
      </trkpt>
      <trkpt lat="46.13614" lon="6.76624">
        <ele>1519.98</ele>
        <time>2015-07-29T06:18:56Z</time>
      </trkpt>
      <trkpt lat="46.13596" lon="6.76619">
        <ele>1525.75</ele>
        <time>2015-07-29T06:20:01Z</time>
      </trkpt>
      <trkpt lat="46.13568" lon="6.76647">
        <ele>1531.52</ele>
        <time>2015-07-29T06:21:06Z</time>
      </trkpt>
      <trkpt lat="46.13526" lon="6.76593">
        <ele>1537.77</ele>
        <time>2015-07-29T06:22:11Z</time>
      </trkpt>
      <trkpt lat="46.135" lon="6.7653">
        <ele>1545.46</ele>
        <time>2015-07-29T06:23:16Z</time>
      </trkpt>
      <trkpt lat="46.1347" lon="6.76512">
        <ele>1551.71</ele>
        <time>2015-07-29T06:24:21Z</time>
      </trkpt>
      <trkpt lat="46.13426" lon="6.76482">
        <ele>1559.4</ele>
        <time>2015-07-29T06:25:26Z</time>
      </trkpt>
      <trkpt lat="46.13393" lon="6.76433">
        <ele>1565.16</ele>
        <time>2015-07-29T06:26:31Z</time>
      </trkpt>
      <trkpt lat="46.1336" lon="6.76444">
        <ele>1569.97</ele>
        <time>2015-07-29T06:27:36Z</time>
      </trkpt>
      <trkpt lat="46.13314" lon="6.76447">
        <ele>1579.58</ele>
        <time>2015-07-29T06:28:41Z</time>
      </trkpt>
      <trkpt lat="46.13268" lon="6.76437">
        <ele>1587.75</ele>
        <time>2015-07-29T06:29:46Z</time>
      </trkpt>
      <trkpt lat="46.13225" lon="6.76436">
        <ele>1597.85</ele>
        <time>2015-07-29T06:30:51Z</time>
      </trkpt>
      <trkpt lat="46.1319" lon="6.76423">
        <ele>1605.54</ele>
        <time>2015-07-29T06:31:56Z</time>
      </trkpt>
      <trkpt lat="46.13153" lon="6.76396">
        <ele>1614.67</ele>
        <time>2015-07-29T06:33:01Z</time>
      </trkpt>
      <trkpt lat="46.13146" lon="6.76355">
        <ele>1618.52</ele>
        <time>2015-07-29T06:34:06Z</time>
      </trkpt>
      <trkpt lat="46.13142" lon="6.76291">
        <ele>1625.25</ele>
        <time>2015-07-29T06:35:11Z</time>
      </trkpt>
      <trkpt lat="46.13143" lon="6.76225">
        <ele>1634.86</ele>
        <time>2015-07-29T06:36:16Z</time>
      </trkpt>
      <trkpt lat="46.13164" lon="6.76168">
        <ele>1643.03</ele>
        <time>2015-07-29T06:37:21Z</time>
      </trkpt>
      <trkpt lat="46.13148" lon="6.76129">
        <ele>1649.76</ele>
        <time>2015-07-29T06:38:26Z</time>
      </trkpt>
      <trkpt lat="46.13113" lon="6.76101">
        <ele>1658.89</ele>
        <time>2015-07-29T06:39:31Z</time>
      </trkpt>
      <trkpt lat="46.1306" lon="6.76097">
        <ele>1662.26</ele>
        <time>2015-07-29T06:40:36Z</time>
      </trkpt>
      <trkpt lat="46.13036" lon="6.76088">
        <ele>1660.81</ele>
        <time>2015-07-29T06:41:41Z</time>
      </trkpt>
      <trkpt lat="46.13037" lon="6.76087">
        <ele>1660.81</ele>
        <time>2015-07-29T06:42:46Z</time>
      </trkpt>
      <trkpt lat="46.13005" lon="6.76104">
        <ele>1658.89</ele>
        <time>2015-07-29T06:43:51Z</time>
      </trkpt>
      <trkpt lat="46.12933" lon="6.76086">
        <ele>1652.16</ele>
        <time>2015-07-29T06:44:56Z</time>
      </trkpt>
      <trkpt lat="46.12892" lon="6.76043">
        <ele>1646.88</ele>
        <time>2015-07-29T06:46:01Z</time>
      </trkpt>
      <trkpt lat="46.12841" lon="6.75978">
        <ele>1639.67</ele>
        <time>2015-07-29T06:47:06Z</time>
      </trkpt>
      <trkpt lat="46.12783" lon="6.75923">
        <ele>1631.49</ele>
        <time>2015-07-29T06:48:11Z</time>
      </trkpt>
      <trkpt lat="46.12739" lon="6.75852">
        <ele>1622.84</ele>
        <time>2015-07-29T06:49:16Z</time>
      </trkpt>
      <trkpt lat="46.12688" lon="6.758">
        <ele>1614.19</ele>
        <time>2015-07-29T06:50:21Z</time>
      </trkpt>
      <trkpt lat="46.12638" lon="6.7575">
        <ele>1603.62</ele>
        <time>2015-07-29T06:51:26Z</time>
      </trkpt>
      <trkpt lat="46.12612" lon="6.75679">
        <ele>1594.48</ele>
        <time>2015-07-29T06:52:31Z</time>
      </trkpt>
      <trkpt lat="46.12575" lon="6.7559">
        <ele>1583.43</ele>
        <time>2015-07-29T06:53:36Z</time>
      </trkpt>
      <trkpt lat="46.12537" lon="6.75556">
        <ele>1575.26</ele>
        <time>2015-07-29T06:54:41Z</time>
      </trkpt>
      <trkpt lat="46.125" lon="6.75521">
        <ele>1567.09</ele>
        <time>2015-07-29T06:55:46Z</time>
      </trkpt>
      <trkpt lat="46.12446" lon="6.75465">
        <ele>1555.07</ele>
        <time>2015-07-29T06:56:51Z</time>
      </trkpt>
      <trkpt lat="46.12394" lon="6.7543">
        <ele>1546.9</ele>
        <time>2015-07-29T06:57:56Z</time>
      </trkpt>
      <trkpt lat="46.1234" lon="6.75368">
        <ele>1536.32</ele>
        <time>2015-07-29T06:59:01Z</time>
      </trkpt>
      <trkpt lat="46.12292" lon="6.75339">
        <ele>1527.19</ele>
        <time>2015-07-29T07:00:06Z</time>
      </trkpt>
      <trkpt lat="46.12252" lon="6.75308">
        <ele>1523.83</ele>
        <time>2015-07-29T07:00:49Z</time>
      </trkpt>
    </trkseg>
  </trk>
</gpx>